Saint Michel 2 — FAB6608 — position and weather

sailwx.info

Track history (hours):
 
Tides and Currents Weather Stations Pressure Air Temp Water Temp Dewpoint Dewpoint Depression Visibility Wind Speed Wind Dir Waves Ship Positions

Saint Michel 2

Last reported at 2017-Sep-21 08:33 UTC. Time now 2017-Nov-22 14:55 UTC.
Position N 47°16' W 001°52'.
Warning: this ship's position is months out of date.

Length 14 m.

Type: Sailing vessel. MMSI: 227224350.

Date/timePositionNaut miles runAvg speedWind from/ knotsBaromVisibWave heightAir tempDewpointWater temp
2017-Sep-21 08:33N 47°16' W 001°52'1 9.1
2017-Sep-21 08:27N 47°15' W 001°51'4 8.4
2017-Sep-21 08:01N 47°13' W 001°47'4 8.2
2017-Sep-21 07:30N 47°12' W 001°41'4 7.7
2017-Sep-21 07:00N 47°12' W 001°36'  
2017-Sep-15 14:04N 47°12' W 001°34'0 1.7
2017-Sep-15 13:58N 47°12' W 001°34'2 4.1
2017-Sep-15 13:30N 47°12' W 001°37'  
2017-Sep-12 17:56N 47°12' W 001°35'3 7.2
2017-Sep-12 17:30N 47°11' W 001°39'  
Track history (hours):
 
Tides and Currents Weather Stations Pressure Air Temp Water Temp Dewpoint Dewpoint Depression Visibility Wind Speed Wind Dir Waves Ship Positions

Saint Michel 2

Last reported at 2017-Sep-21 08:33 UTC. Time now 2017-Nov-22 14:55 UTC.
Position N 47°16' W 001°52'.
Warning: this ship's position is months out of date.

Length 14 m.

Type: Sailing vessel. MMSI: 227224350.

Date/timePositionNaut miles runAvg speedWind from/ knotsBaromVisibWave heightAir tempDewpointWater temp
2017-Sep-21 08:33N 47°16' W 001°52'1 9.1
2017-Sep-21 08:27N 47°15' W 001°51'4 8.4
2017-Sep-21 08:01N 47°13' W 001°47'4 8.2
2017-Sep-21 07:30N 47°12' W 001°41'4 7.7
2017-Sep-21 07:00N 47°12' W 001°36'  
2017-Sep-15 14:04N 47°12' W 001°34'0 1.7
2017-Sep-15 13:58N 47°12' W 001°34'2 4.1
2017-Sep-15 13:30N 47°12' W 001°37'  
2017-Sep-12 17:56N 47°12' W 001°35'3 7.2
2017-Sep-12 17:30N 47°11' W 001°39'  

Dump ship's entire track history